Time;durP1;ratioP1;P1;durP2;ratioP2;P2;SDS_P1;SDS_P2;PMS_P1;PMS_P2;Temp;Humidity;BMP_temperature;BMP_pressure;BME280_temperature;BME280_humidity;BME280_pressure;Samples;Min_cycle;Max_cycle;Signal;HPM_P1;HPM_P2
2022/01/11 00:02:16;;;;;;;527.28;63.47;;;0.10;99.90;;;;;;5026061;28;20295;-88
2022/01/11 00:05:36;;;;;;;507.13;62.05;;;0.10;99.90;;;;;;5038925;28;20197;-89
2022/01/11 00:08:37;;;;;;;393.25;55.42;;;0.00;99.90;;;;;;5026578;28;20510;-88
2022/01/11 00:11:54;;;;;;;492.17;62.20;;;-0.10;99.90;;;;;;4996059;28;20041;-86
2022/01/11 00:14:57;;;;;;;395.95;56.38;;;-0.10;99.90;;;;;;4977736;28;20077;-87
2022/01/11 00:21:21;;;;;;;343.17;52.70;;;-0.10;99.90;;;;;;4980933;28;20082;-87
2022/01/11 00:27:37;;;;;;;371.02;50.80;;;-0.10;99.90;;;;;;5033575;28;20055;-87
2022/01/11 00:30:37;;;;;;;457.13;60.30;;;-0.30;99.90;;;;;;5007253;28;20048;-86
2022/01/11 00:37:31;;;;;;;368.02;52.10;;;-0.20;99.90;;;;;;5032046;28;20105;-87
2022/01/11 00:40:04;;;;;;;413.73;56.92;;;-0.20;99.90;;;;;;5036008;28;20187;-86
2022/01/11 00:42:32;;;;;;;397.48;59.97;;;-0.20;99.90;;;;;;5024112;28;20368;-86
2022/01/11 00:45:03;;;;;;;448.48;64.70;;;-0.20;99.90;;;;;;5023059;28;20029;-86
2022/01/11 00:47:29;;;;;;;359.95;53.53;;;-0.20;99.90;;;;;;5027022;28;20119;-86
2022/01/11 00:50:03;;;;;;;401.08;58.00;;;-0.20;99.90;;;;;;5012000;28;20109;-86
2022/01/11 00:52:32;;;;;;;452.38;59.42;;;-0.20;99.90;;;;;;5030076;28;20037;-86
2022/01/11 00:55:01;;;;;;;471.63;62.97;;;-0.10;99.90;;;;;;5027467;28;20054;-87
2022/01/11 00:57:33;;;;;;;354.70;60.08;;;-0.10;99.90;;;;;;5045416;28;20028;-86
2022/01/11 01:00:08;;;;;;;422.20;58.92;;;-0.10;99.90;;;;;;5008016;28;20383;-87
2022/01/11 01:02:42;;;;;;;436.67;59.20;;;-0.10;99.90;;;;;;5029556;28;20049;-87
2022/01/11 01:05:17;;;;;;;428.58;60.95;;;-0.10;99.90;;;;;;5019000;28;20835;-86
2022/01/11 01:07:46;;;;;;;417.20;59.97;;;-0.10;99.90;;;;;;5029329;28;20491;-86
2022/01/11 01:10:25;;;;;;;492.38;64.90;;;-0.20;99.90;;;;;;5046369;28;20432;-86
2022/01/11 01:12:56;;;;;;;465.85;63.97;;;-0.20;99.90;;;;;;5016626;28;20399;-86
2022/01/11 01:15:34;;;;;;;393.15;60.53;;;-0.20;99.90;;;;;;5027735;28;20174;-87
2022/01/11 01:18:05;;;;;;;361.70;57.58;;;-0.10;99.90;;;;;;5025929;28;20533;-87
2022/01/11 01:20:32;;;;;;;397.15;60.20;;;-0.20;99.90;;;;;;5034714;28;20036;-85
2022/01/11 01:23:01;;;;;;;481.98;64.35;;;-0.10;99.90;;;;;;5044973;28;20098;-87
2022/01/11 01:25:43;;;;;;;375.20;58.20;;;-0.10;99.90;;;;;;5023090;28;20425;-88
2022/01/11 01:28:20;;;;;;;427.45;63.30;;;-0.10;99.90;;;;;;5023238;28;20162;-86
2022/01/11 01:30:47;;;;;;;411.13;61.88;;;-0.10;99.90;;;;;;5044402;28;20840;-87
2022/01/11 01:33:14;;;;;;;445.98;66.28;;;-0.10;99.90;;;;;;5022430;28;20491;-87
2022/01/11 01:35:42;;;;;;;486.20;65.25;;;-0.10;99.90;;;;;;5030229;28;20060;-86
2022/01/11 01:38:10;;;;;;;464.15;62.90;;;-0.10;99.90;;;;;;5034166;28;20423;-86
2022/01/11 01:40:44;;;;;;;463.60;64.93;;;0.00;99.90;;;;;;5036155;28;20712;-86
2022/01/11 01:43:19;;;;;;;515.97;68.18;;;0.00;99.90;;;;;;5019605;28;20106;-86
2022/01/11 01:45:49;;;;;;;473.13;63.95;;;0.00;99.90;;;;;;5034000;28;20033;-86
2022/01/11 01:48:18;;;;;;;419.88;60.80;;;0.00;99.90;;;;;;5048667;28;20055;-87
2022/01/11 01:50:45;;;;;;;580.53;72.82;;;-0.10;99.90;;;;;;5034281;28;20032;-86
2022/01/11 01:53:13;;;;;;;407.90;60.85;;;-0.10;99.90;;;;;;5034210;28;20059;-87
2022/01/11 01:55:44;;;;;;;385.05;59.30;;;0.00;99.90;;;;;;5019754;28;20040;-87
2022/01/11 01:58:11;;;;;;;473.20;65.85;;;0.00;99.90;;;;;;5023330;28;20037;-87
2022/01/11 02:00:53;;;;;;;;;;;;;;;;;;;;;
2022/01/11 02:03:38;;;;;;;417.38;58.28;;;0.00;99.90;;;;;;5040773;28;20495;-87
2022/01/11 02:06:06;;;;;;;431.05;58.30;;;0.00;99.90;;;;;;5017460;28;20395;-86
2022/01/11 02:08:35;;;;;;;432.80;62.78;;;0.00;99.90;;;;;;5010520;28;20158;-88
2022/01/11 02:11:02;;;;;;;407.92;62.60;;;0.00;99.90;;;;;;5029589;28;20450;-87
2022/01/11 02:13:28;;;;;;;425.52;61.15;;;0.00;99.90;;;;;;5018751;28;20423;-87
2022/01/11 02:15:56;;;;;;;399.42;61.65;;;0.00;99.90;;;;;;5041913;28;20036;-86
2022/01/11 02:18:26;;;;;;;453.17;64.28;;;0.00;99.90;;;;;;5019915;28;20380;-87
2022/01/11 02:20:58;;;;;;;488.50;63.55;;;0.00;99.90;;;;;;5045491;28;20043;-86
2022/01/11 02:23:26;;;;;;;446.25;55.67;;;0.00;99.90;;;;;;5030396;28;20101;-87
2022/01/11 02:26:03;;;;;;;474.25;63.13;;;0.00;99.90;;;;;;5040931;28;20581;-87
2022/01/11 02:28:29;;;;;;;460.77;59.67;;;0.00;99.90;;;;;;5015325;28;20072;-86
2022/01/11 02:31:12;;;;;;;549.85;65.22;;;0.00;99.90;;;;;;5003681;28;20045;-86
2022/01/11 02:33:44;;;;;;;441.25;58.35;;;0.00;99.90;;;;;;5034270;28;20129;-85
2022/01/11 02:36:20;;;;;;;427.67;61.35;;;0.00;99.90;;;;;;5034496;28;20040;-86
2022/01/11 02:38:52;;;;;;;445.50;61.70;;;0.00;99.90;;;;;;5047121;28;20044;-86
2022/01/11 02:41:25;;;;;;;445.63;62.03;;;0.00;99.90;;;;;;5018934;28;20629;-86
2022/01/11 02:43:57;;;;;;;;;;;0.00;99.90;;;;;;5027560;28;20093;-87
2022/01/11 02:46:27;;;;;;;388.00;53.40;;;0.00;99.90;;;;;;5026368;28;20000;-86
2022/01/11 02:48:58;;;;;;;229.07;42.88;;;0.00;99.90;;;;;;5034347;28;20067;-86
2022/01/11 02:51:29;;;;;;;337.17;54.70;;;0.00;99.90;;;;;;5030092;28;20051;-86
2022/01/11 02:54:02;;;;;;;402.17;57.75;;;0.00;99.90;;;;;;5015361;28;21550;-88
2022/01/11 02:56:31;;;;;;;414.40;57.17;;;0.00;99.90;;;;;;5016954;28;20052;-86
2022/01/11 02:59:01;;;;;;;376.35;50.70;;;0.00;99.90;;;;;;5040512;28;20507;-87
2022/01/11 03:01:32;;;;;;;305.45;50.65;;;0.00;99.90;;;;;;5018941;28;20036;-87
2022/01/11 03:04:01;;;;;;;363.00;54.35;;;-0.10;99.90;;;;;;5007086;28;20496;-87
2022/01/11 03:06:27;;;;;;;384.55;54.83;;;-0.10;99.90;;;;;;4995154;28;20130;-87
2022/01/11 03:08:55;;;;;;;423.42;57.15;;;-0.10;99.90;;;;;;5003404;28;20048;-87
2022/01/11 03:11:25;;;;;;;319.02;49.30;;;-0.10;99.90;;;;;;5016272;28;20140;-85
2022/01/11 03:13:56;;;;;;;279.05;50.83;;;-0.10;99.90;;;;;;5046556;28;20052;-86
2022/01/11 03:16:22;;;;;;;326.70;51.33;;;-0.10;99.90;;;;;;5034429;28;20044;-86
2022/01/11 03:18:53;;;;;;;321.83;52.40;;;-0.10;99.90;;;;;;5001235;28;20041;-86
2022/01/11 03:21:19;;;;;;;320.30;53.47;;;-0.10;99.90;;;;;;5018876;28;20036;-87
2022/01/11 03:23:51;;;;;;;372.10;55.85;;;0.00;99.90;;;;;;5034570;28;20041;-86
2022/01/11 03:26:17;;;;;;;326.10;51.97;;;-0.10;99.90;;;;;;5032559;28;20044;-86
2022/01/11 03:28:42;;;;;;;260.52;49.30;;;0.00;99.90;;;;;;5002371;28;20813;-87
2022/01/11 03:31:08;;;;;;;300.95;50.05;;;0.00;99.90;;;;;;4999542;28;20051;-86
2022/01/11 03:33:39;;;;;;;331.42;52.28;;;-0.10;99.90;;;;;;4996161;28;20044;-87
2022/01/11 03:36:05;;;;;;;287.25;50.38;;;0.00;99.90;;;;;;5014518;28;20127;-86
2022/01/11 03:38:33;;;;;;;272.00;50.13;;;0.00;99.90;;;;;;5015134;28;20047;-86
2022/01/11 03:40:59;;;;;;;238.10;47.65;;;0.00;99.90;;;;;;5012950;28;20044;-86
2022/01/11 03:43:28;;;;;;;232.60;47.85;;;-0.10;99.90;;;;;;5009150;28;20037;-86
2022/01/11 03:45:57;;;;;;;236.85;46.70;;;-0.10;99.90;;;;;;4994014;28;20036;-87
2022/01/11 03:48:23;;;;;;;284.42;49.35;;;-0.10;99.90;;;;;;5017206;28;20125;-86
2022/01/11 03:50:55;;;;;;;274.70;49.22;;;-0.10;99.90;;;;;;5021774;28;20040;-87
2022/01/11 03:53:27;;;;;;;;;;;0.00;99.90;;;;;;5022462;28;20506;-86
2022/01/11 03:58:26;;;;;;;214.90;45.40;;;-0.10;99.90;;;;;;5026740;28;20105;-85
2022/01/11 04:00:53;;;;;;;222.98;46.63;;;-0.10;99.90;;;;;;5026694;28;20041;-87
2022/01/11 04:03:19;;;;;;;258.95;47.30;;;-0.10;99.90;;;;;;5020764;28;20035;-86
2022/01/11 04:05:46;;;;;;;277.85;48.13;;;-0.10;99.90;;;;;;5027854;28;20076;-86
2022/01/11 04:08:12;;;;;;;240.63;48.10;;;-0.10;99.90;;;;;;5020679;28;20505;-86
2022/01/11 04:10:38;;;;;;;239.23;47.05;;;-0.10;99.90;;;;;;5031184;28;20263;-86
2022/01/11 04:13:04;;;;;;;191.70;43.47;;;-0.10;99.90;;;;;;5012231;28;20051;-86
2022/01/11 04:15:30;;;;;;;191.57;41.63;;;-0.10;99.90;;;;;;5008962;28;20051;-87
2022/01/11 04:17:55;;;;;;;207.02;45.60;;;-0.10;99.90;;;;;;5035220;28;20040;-88
2022/01/11 04:20:22;;;;;;;263.50;47.55;;;-0.10;99.90;;;;;;5005188;28;20041;-86
2022/01/11 04:22:51;;;;;;;254.85;46.83;;;-0.10;99.90;;;;;;4989179;28;20044;-86
2022/01/11 04:25:18;;;;;;;253.85;48.53;;;-0.10;99.90;;;;;;5021783;28;20036;-86
2022/01/11 04:27:46;;;;;;;242.10;46.05;;;-0.10;99.90;;;;;;5023401;28;20045;-87
2022/01/11 04:30:22;;;;;;;249.80;46.47;;;-0.10;99.90;;;;;;5008173;28;20386;-87
2022/01/11 04:32:48;;;;;;;259.25;46.67;;;-0.10;99.90;;;;;;5018333;28;20771;-86
2022/01/11 04:35:16;;;;;;;232.25;47.20;;;-0.10;99.90;;;;;;5011194;28;20043;-86
2022/01/11 04:37:46;;;;;;;325.70;51.53;;;-0.10;99.90;;;;;;5033180;28;20184;-87
2022/01/11 04:40:13;;;;;;;227.50;46.55;;;-0.10;99.90;;;;;;5024989;28;20549;-85
2022/01/11 04:42:39;;;;;;;270.63;49.42;;;-0.10;99.90;;;;;;5025127;28;20029;-86
2022/01/11 04:45:11;;;;;;;266.77;48.30;;;-0.10;99.90;;;;;;5018555;28;20480;-86
2022/01/11 04:47:40;;;;;;;252.33;47.63;;;-0.10;99.90;;;;;;5028954;28;20044;-87
2022/01/11 04:50:08;;;;;;;278.88;53.70;;;-0.10;99.90;;;;;;5039820;28;20151;-87
2022/01/11 04:52:34;;;;;;;265.13;48.40;;;-0.10;99.90;;;;;;5024463;28;20104;-87
2022/01/11 04:55:07;;;;;;;310.67;54.03;;;-0.10;99.90;;;;;;5008295;28;20046;-86
2022/01/11 04:57:32;;;;;;;293.27;53.45;;;0.00;99.90;;;;;;5035848;28;20037;-88
2022/01/11 04:59:58;;;;;;;309.38;53.92;;;-0.10;99.90;;;;;;5002802;28;20041;-86
2022/01/11 05:02:26;;;;;;;281.50;52.55;;;0.00;99.90;;;;;;4990672;28;20036;-86
2022/01/11 05:04:55;;;;;;;282.65;53.80;;;0.00;99.90;;;;;;5018034;28;20037;-87
2022/01/11 05:07:23;;;;;;;301.65;51.85;;;0.10;99.90;;;;;;5008249;28;20392;-87
2022/01/11 05:09:53;;;;;;;336.30;56.95;;;0.00;99.90;;;;;;5024128;28;20445;-87
2022/01/11 05:12:38;;;;;;;311.55;55.53;;;0.00;99.90;;;;;;5027628;28;20036;-87
2022/01/11 05:15:11;;;;;;;336.92;56.65;;;0.00;99.90;;;;;;5015443;28;20044;-87
2022/01/11 05:17:41;;;;;;;354.92;58.42;;;0.00;99.90;;;;;;5024968;28;20037;-87
2022/01/11 05:20:07;;;;;;;311.38;57.40;;;0.00;99.90;;;;;;5028560;28;20048;-87
2022/01/11 05:22:33;;;;;;;283.60;55.58;;;0.00;99.90;;;;;;5009956;28;20181;-87
2022/01/11 05:24:59;;;;;;;300.55;57.90;;;0.00;99.90;;;;;;4996952;28;20188;-88
2022/01/11 05:27:29;;;;;;;292.90;57.60;;;0.00;99.90;;;;;;5034253;28;20091;-87
2022/01/11 05:29:57;;;;;;;318.98;58.33;;;0.10;99.90;;;;;;5020880;28;20045;-88
2022/01/11 05:32:23;;;;;;;323.30;57.80;;;0.00;99.90;;;;;;5009754;28;20280;-88
2022/01/11 05:34:52;;;;;;;319.63;58.35;;;0.00;99.90;;;;;;5014742;28;20380;-87
2022/01/11 05:37:18;;;;;;;347.00;59.13;;;0.00;99.90;;;;;;5029103;28;20033;-87
2022/01/11 05:39:48;;;;;;;318.23;59.30;;;0.00;99.90;;;;;;5013362;28;20063;-86
2022/01/11 05:42:14;;;;;;;359.60;62.42;;;0.00;99.90;;;;;;5015816;28;20055;-87
2022/01/11 05:44:40;;;;;;;372.48;61.70;;;0.00;99.90;;;;;;4988914;28;20492;-86
2022/01/11 05:47:09;;;;;;;342.05;60.33;;;0.10;99.90;;;;;;5011043;28;20051;-87
2022/01/11 05:49:35;;;;;;;371.35;61.67;;;0.10;99.90;;;;;;5005905;28;20526;-87
2022/01/11 05:52:06;;;;;;;337.60;59.58;;;0.10;99.90;;;;;;5005922;28;20044;-87
2022/01/11 05:54:32;;;;;;;291.50;57.80;;;0.10;99.90;;;;;;5028338;28;20480;-87
2022/01/11 05:57:01;;;;;;;339.20;62.13;;;0.00;99.90;;;;;;5023271;28;21801;-88
2022/01/11 05:59:27;;;;;;;359.58;60.90;;;0.00;99.90;;;;;;5026987;28;20393;-88
2022/01/11 06:01:53;;;;;;;335.10;63.00;;;0.10;99.90;;;;;;5028713;28;20219;-89
2022/01/11 06:04:19;;;;;;;362.40;62.97;;;0.10;99.90;;;;;;5023137;28;20041;-86
2022/01/11 06:06:50;;;;;;;401.63;64.68;;;0.10;99.90;;;;;;4994390;28;20051;-86
2022/01/11 06:09:19;;;;;;;353.73;60.60;;;0.00;99.90;;;;;;5011686;28;20056;-88
2022/01/11 06:11:45;;;;;;;366.77;64.85;;;0.00;99.90;;;;;;5005670;28;20064;-88
2022/01/11 06:14:11;;;;;;;375.05;63.63;;;0.00;99.90;;;;;;5047855;28;20078;-88
2022/01/11 06:16:37;;;;;;;365.80;65.47;;;0.10;99.90;;;;;;5036681;28;20044;-87
2022/01/11 06:19:04;;;;;;;385.80;66.35;;;0.00;99.90;;;;;;5007139;28;20078;-88
2022/01/11 06:21:30;;;;;;;357.73;62.10;;;0.00;99.90;;;;;;5061039;28;20499;-86
2022/01/11 06:23:58;;;;;;;358.23;64.25;;;0.10;99.90;;;;;;5025068;28;20114;-87
2022/01/11 06:26:24;;;;;;;328.38;60.15;;;0.00;99.90;;;;;;5005026;28;20049;-87
2022/01/11 06:28:49;;;;;;;379.73;66.28;;;0.00;99.90;;;;;;5029156;28;20051;-87
2022/01/11 06:31:15;;;;;;;324.17;63.88;;;0.00;99.90;;;;;;5010855;28;20052;-87
2022/01/11 06:33:41;;;;;;;275.30;56.75;;;0.00;99.90;;;;;;5008006;28;20523;-87
2022/01/11 06:36:11;;;;;;;314.33;61.45;;;-0.10;99.90;;;;;;4989948;28;20096;-86
2022/01/11 06:38:42;;;;;;;360.58;62.92;;;0.10;99.90;;;;;;5011311;28;20044;-88
2022/01/11 06:41:09;;;;;;;355.92;62.30;;;0.00;99.90;;;;;;5042163;28;20078;-87
2022/01/11 06:43:36;;;;;;;343.85;64.57;;;0.00;99.90;;;;;;5023517;28;20044;-87
2022/01/11 06:46:06;;;;;;;354.45;63.42;;;0.00;99.90;;;;;;5024866;28;20099;-87
2022/01/11 06:48:35;;;;;;;280.73;58.97;;;0.00;99.90;;;;;;5027199;28;20095;-88
2022/01/11 06:51:04;;;;;;;359.50;64.57;;;0.00;99.90;;;;;;5007131;28;20389;-86
2022/01/11 06:53:35;;;;;;;328.98;62.10;;;0.00;99.90;;;;;;5024787;28;20072;-87
2022/01/11 06:56:01;;;;;;;323.90;61.97;;;0.00;99.90;;;;;;5011288;28;20058;-87
2022/01/11 06:58:27;;;;;;;295.90;59.72;;;0.00;99.90;;;;;;5025085;28;20032;-86
2022/01/11 07:00:53;;;;;;;276.73;57.17;;;0.00;99.90;;;;;;5000026;28;20559;-86
2022/01/11 07:03:21;;;;;;;319.23;61.13;;;0.00;99.90;;;;;;5025346;28;20881;-87
2022/01/11 07:05:47;;;;;;;292.92;60.88;;;-0.10;99.90;;;;;;5013761;28;20275;-88
2022/01/11 07:08:13;;;;;;;297.23;59.70;;;-0.10;99.90;;;;;;5027940;28;20062;-88
2022/01/11 07:10:39;;;;;;;300.63;58.50;;;-0.10;99.90;;;;;;5027515;28;20530;-87
2022/01/11 07:13:11;;;;;;;285.30;58.67;;;-0.10;99.90;;;;;;4999399;28;20097;-87
2022/01/11 07:15:40;;;;;;;240.73;56.50;;;0.00;99.90;;;;;;5021611;28;20040;-87
2022/01/11 07:18:09;;;;;;;304.08;62.85;;;-0.10;99.90;;;;;;5011842;28;20376;-86
2022/01/11 07:20:38;;;;;;;312.83;62.75;;;-0.10;99.90;;;;;;5023504;28;20125;-86
2022/01/11 07:23:07;;;;;;;272.27;57.90;;;-0.10;99.90;;;;;;5017308;28;20044;-87
2022/01/11 07:25:33;;;;;;;310.35;61.25;;;-0.20;99.90;;;;;;5008284;28;20352;-86
2022/01/11 07:27:59;;;;;;;300.75;58.67;;;-0.10;99.90;;;;;;5022605;28;20052;-87
2022/01/11 07:30:25;;;;;;;301.35;60.65;;;-0.10;99.90;;;;;;5044453;28;20040;-87
2022/01/11 07:32:52;;;;;;;309.05;60.05;;;-0.10;99.90;;;;;;5024408;28;20299;-87
2022/01/11 07:35:23;;;;;;;252.95;58.92;;;-0.20;99.90;;;;;;5033798;28;20113;-88
2022/01/11 07:37:49;;;;;;;246.80;56.38;;;-0.20;99.90;;;;;;5024957;28;20032;-87
2022/01/11 07:40:15;;;;;;;238.20;55.05;;;-0.10;99.90;;;;;;4992478;28;20075;-86
2022/01/11 07:42:41;;;;;;;244.50;56.80;;;-0.20;99.90;;;;;;5049408;28;20127;-87
2022/01/11 07:45:07;;;;;;;275.35;54.72;;;-0.10;99.90;;;;;;5019345;28;20131;-86
2022/01/11 07:47:36;;;;;;;256.23;55.95;;;-0.10;99.90;;;;;;5009951;28;20044;-88
2022/01/11 07:50:04;;;;;;;243.75;54.90;;;-0.20;99.90;;;;;;5028682;28;20856;-88
2022/01/11 07:52:29;;;;;;;235.85;55.53;;;-0.20;99.90;;;;;;5023098;28;21100;-87
2022/01/11 07:54:57;;;;;;;196.68;51.67;;;-0.20;99.90;;;;;;4992672;28;20044;-87
2022/01/11 07:57:23;;;;;;;177.15;50.50;;;-0.10;99.90;;;;;;5026947;28;20040;-87
2022/01/11 07:59:55;;;;;;;187.95;50.63;;;-0.10;99.90;;;;;;5039830;28;20049;-86
2022/01/11 08:02:23;;;;;;;198.70;49.83;;;-0.10;99.90;;;;;;4992942;28;20036;-89
2022/01/11 08:04:51;;;;;;;166.52;49.42;;;-0.10;99.90;;;;;;5038815;28;20124;-88
2022/01/11 08:07:17;;;;;;;142.43;45.50;;;-0.10;99.90;;;;;;5035405;28;20061;-87
2022/01/11 08:09:43;;;;;;;147.10;45.75;;;-0.10;99.90;;;;;;5003837;28;20175;-87
2022/01/11 08:12:09;;;;;;;172.23;48.58;;;-0.10;99.90;;;;;;5014873;28;20044;-87
2022/01/11 08:14:35;;;;;;;155.50;45.65;;;-0.10;99.90;;;;;;5009876;28;20036;-87
2022/01/11 08:17:01;;;;;;;134.10;41.80;;;-0.10;99.90;;;;;;5027726;28;20059;-87
2022/01/11 08:19:27;;;;;;;139.00;43.90;;;0.00;99.90;;;;;;5020201;28;21071;-89
2022/01/11 08:21:57;;;;;;;108.30;37.70;;;0.00;99.90;;;;;;5006128;28;20286;-88
2022/01/11 08:24:24;;;;;;;110.07;35.33;;;0.00;99.90;;;;;;5029135;28;20048;-87
2022/01/11 08:26:51;;;;;;;131.85;39.70;;;0.00;99.90;;;;;;5025677;28;20178;-86
2022/01/11 08:29:20;;;;;;;133.23;39.10;;;0.10;99.90;;;;;;5006155;28;20950;-88
2022/01/11 08:31:47;;;;;;;107.72;37.13;;;0.10;99.90;;;;;;4990606;28;20047;-87
2022/01/11 08:34:14;;;;;;;113.00;39.10;;;0.10;99.90;;;;;;5004424;28;20072;-87
2022/01/11 08:36:45;;;;;;;96.82;34.05;;;0.20;99.90;;;;;;5032070;28;20449;-89
2022/01/11 08:39:26;;;;;;;98.78;34.67;;;0.20;99.90;;;;;;5025940;28;20033;-86
2022/01/11 08:41:52;;;;;;;99.47;34.70;;;0.20;99.90;;;;;;5025849;28;20491;-87
2022/01/11 08:44:20;;;;;;;100.57;34.67;;;0.30;99.90;;;;;;5024909;28;20064;-86
2022/01/11 08:46:47;;;;;;;97.65;35.45;;;0.30;99.90;;;;;;5042898;28;20052;-89
2022/01/11 08:49:22;;;;;;;109.55;36.75;;;0.30;99.90;;;;;;5044630;28;20040;-87
2022/01/11 08:51:59;;;;;;;100.43;35.33;;;0.30;99.90;;;;;;5023800;28;20507;-88
2022/01/11 08:54:25;;;;;;;85.43;32.25;;;0.40;99.90;;;;;;5020776;28;20036;-87
2022/01/11 08:56:54;;;;;;;85.72;31.45;;;0.40;99.90;;;;;;5023035;28;20105;-87
2022/01/11 08:59:31;;;;;;;90.40;31.90;;;0.40;99.90;;;;;;5025799;28;20503;-88
2022/01/11 09:20:33;;;;;;;;;;;;;;;;;;;;;
2022/01/11 09:27:41;;;;;;;75.53;29.90;;;0.60;99.90;;;;;;4936525;28;20079;-86
2022/01/11 09:30:31;;;;;;;71.47;27.88;;;0.60;99.90;;;;;;4929880;28;20106;-85
2022/01/11 09:37:28;;;;;;;63.65;25.30;;;0.60;99.90;;;;;;4925606;28;20078;-86
2022/01/11 09:40:48;;;;;;;;;;;;;;;;;;;;;
2022/01/11 09:44:23;;;;;;;73.15;26.42;;;0.60;99.90;;;;;;4923089;29;20051;-86
2022/01/11 09:48:03;;;;;;;61.55;24.20;;;0.60;99.90;;;;;;4829364;29;21568;-86
2022/01/11 10:47:09;;;;;;;;;;;;;;;;;;;;;
2022/01/11 10:50:28;;;;;;;43.35;20.20;;;1.20;99.90;;;;;;6038441;23;20014;-87
2022/01/11 10:56:43;;;;;;;46.45;22.05;;;1.30;99.90;;;;;;5991516;23;20148;-86
2022/01/11 10:59:32;;;;;;;38.35;19.92;;;1.40;99.90;;;;;;5960711;23;20035;-86
2022/01/11 11:02:49;;;;;;;;;;;;;;;;;;;;;
2022/01/11 11:11:39;;;;;;;45.15;21.70;;;1.40;99.90;;;;;;6140473;23;20398;-86
2022/01/11 11:15:09;;;;;;;45.45;21.08;;;1.40;99.90;;;;;;6248270;22;20043;-86
2022/01/11 11:18:20;;;;;;;51.10;21.33;;;1.40;99.90;;;;;;6070265;23;20014;-86
2022/01/11 11:21:40;;;;;;;45.50;20.90;;;1.40;99.90;;;;;;6085610;23;20562;-86
2022/01/11 11:24:37;;;;;;;46.72;18.73;;;1.40;99.90;;;;;;6138336;23;20040;-86
2022/01/11 11:27:20;;;;;;;44.00;20.73;;;1.50;99.90;;;;;;6066674;23;20384;-86
2022/01/11 11:30:10;;;;;;;42.28;20.58;;;1.60;99.90;;;;;;6176329;23;20020;-87
2022/01/11 11:32:37;;;;;;;41.72;19.52;;;1.80;99.90;;;;;;6174079;23;20020;-85
2022/01/11 11:35:04;;;;;;;48.55;21.42;;;1.90;99.90;;;;;;6174033;23;20160;-86
2022/01/11 11:37:45;;;;;;;47.10;20.70;;;2.00;99.90;;;;;;6175340;23;20035;-87
2022/01/11 11:40:27;;;;;;;43.70;19.65;;;2.10;99.90;;;;;;6174814;23;20507;-87
2022/01/11 11:42:58;;;;;;;40.50;17.20;;;2.20;99.90;;;;;;6175183;23;20023;-85
2022/01/11 11:45:32;;;;;;;37.77;18.37;;;2.30;99.90;;;;;;6212777;22;20464;-88
2022/01/11 11:48:13;;;;;;;34.80;16.95;;;2.30;99.90;;;;;;6235334;22;20241;-86
2022/01/11 11:51:03;;;;;;;33.78;16.05;;;2.40;99.90;;;;;;6236144;22;20011;-87
2022/01/11 11:53:36;;;;;;;34.25;15.80;;;2.40;99.90;;;;;;6236671;22;20086;-87
2022/01/11 11:56:34;;;;;;;32.70;16.55;;;2.50;99.90;;;;;;6233339;22;20065;-88
2022/01/11 11:59:07;;;;;;;32.58;15.05;;;2.60;99.90;;;;;;6236797;22;20359;-89
2022/01/11 12:01:47;;;;;;;37.17;16.92;;;2.80;99.90;;;;;;6238460;22;20022;-88
2022/01/11 12:04:14;;;;;;;31.92;16.17;;;2.90;99.90;;;;;;6237715;22;20019;-86
2022/01/11 12:06:45;;;;;;;36.67;16.55;;;3.10;99.90;;;;;;6237215;22;20092;-87
2022/01/11 12:09:17;;;;;;;36.75;17.02;;;3.10;99.90;;;;;;6235762;22;20311;-88
2022/01/11 12:11:45;;;;;;;31.45;14.55;;;3.20;99.90;;;;;;6238548;22;20015;-87
2022/01/11 12:14:41;;;;;;;29.05;13.73;;;3.40;99.90;;;;;;6237987;22;20380;-87
2022/01/11 12:17:10;;;;;;;32.80;15.90;;;3.50;99.90;;;;;;6219614;22;20015;-86
2022/01/11 12:20:07;;;;;;;33.47;15.40;;;3.60;99.90;;;;;;6239076;22;20322;-88
2022/01/11 12:22:40;;;;;;;30.33;14.00;;;3.80;99.90;;;;;;6237284;22;20486;-87
2022/01/11 12:25:30;;;;;;;24.98;12.90;;;4.10;99.90;;;;;;6242437;22;20023;-87
2022/01/11 12:28:17;;;;;;;30.77;14.95;;;4.40;99.90;;;;;;6213502;22;20015;-86
2022/01/11 12:31:28;;;;;;;29.67;13.95;;;4.70;99.90;;;;;;6240650;22;20054;-88
2022/01/11 12:34:17;;;;;;;28.52;13.98;;;4.90;99.90;;;;;;6285712;22;20014;-88
2022/01/11 12:37:02;;;;;;;25.55;12.98;;;5.00;99.90;;;;;;6240853;22;20049;-86
2022/01/11 12:39:31;;;;;;;25.30;13.23;;;5.00;99.90;;;;;;6239347;22;20015;-87
2022/01/11 12:42:21;;;;;;;29.63;12.63;;;5.00;99.90;;;;;;6241151;22;20047;-87
2022/01/11 12:47:43;;;;;;;31.23;14.23;;;4.90;99.90;;;;;;6266570;22;20094;-86
2022/01/11 12:50:14;;;;;;;27.80;13.13;;;4.80;99.90;;;;;;6240685;22;20019;-86
2022/01/11 12:52:40;;;;;;;28.58;13.40;;;4.60;99.90;;;;;;6214525;22;20259;-85
2022/01/11 12:55:08;;;;;;;29.60;13.57;;;4.50;99.90;;;;;;6212920;22;20021;-87
2022/01/11 12:57:34;;;;;;;30.25;14.55;;;4.50;99.90;;;;;;6238743;22;20121;-87
2022/01/11 13:00:17;;;;;;;27.73;13.02;;;4.40;99.90;;;;;;6211357;22;20019;-86
2022/01/11 13:02:44;;;;;;;29.92;14.45;;;4.40;99.90;;;;;;6264454;22;20011;-87
2022/01/11 13:05:17;;;;;;;30.02;13.18;;;4.40;99.90;;;;;;6213732;22;20072;-87
2022/01/11 13:07:50;;;;;;;32.47;14.63;;;4.30;99.90;;;;;;6237675;22;20347;-87
2022/01/11 13:10:20;;;;;;;32.22;13.13;;;4.30;99.90;;;;;;6239512;22;20015;-87
2022/01/11 13:13:12;;;;;;;29.52;14.90;;;4.30;99.90;;;;;;6237225;22;20014;-86
2022/01/11 13:15:50;;;;;;;32.88;14.45;;;4.20;99.90;;;;;;6215654;22;20022;-86
2022/01/11 13:18:17;;;;;;;30.20;13.77;;;4.20;99.90;;;;;;6245256;22;20118;-86
2022/01/11 13:20:45;;;;;;;27.55;13.73;;;4.20;99.90;;;;;;6272329;22;20351;-86
2022/01/11 13:23:32;;;;;;;34.58;15.30;;;4.20;99.90;;;;;;6239235;22;20456;-86
2022/01/11 13:26:04;;;;;;;30.23;13.38;;;4.20;99.90;;;;;;6193182;22;20487;-87
2022/01/11 13:29:07;;;;;;;35.40;14.43;;;4.10;99.90;;;;;;6238968;22;20107;-85
2022/01/11 13:31:40;;;;;;;24.83;12.38;;;4.10;99.90;;;;;;6157363;22;20011;-85
2022/01/11 13:34:11;;;;;;;29.52;13.27;;;4.10;99.90;;;;;;6237874;22;20012;-86
2022/01/11 13:36:51;;;;;;;42.08;14.85;;;4.10;99.90;;;;;;6238163;22;20058;-87
2022/01/11 13:39:34;;;;;;;26.15;12.60;;;4.10;99.90;;;;;;6240939;22;20670;-88
2022/01/11 13:42:04;;;;;;;;;;;4.10;99.90;;;;;;6238613;22;20017;-86
2022/01/11 13:44:32;;;;;;;28.88;12.40;;;4.10;99.90;;;;;;6238250;22;19911;-87
2022/01/11 13:47:04;;;;;;;27.83;13.32;;;4.10;99.90;;;;;;6239317;22;20348;-86
2022/01/11 13:49:36;;;;;;;26.77;12.48;;;4.10;99.90;;;;;;6239057;22;20077;-86
2022/01/11 13:52:11;;;;;;;31.90;14.68;;;4.10;99.90;;;;;;6260882;22;20051;-86
2022/01/11 13:54:48;;;;;;;26.90;12.23;;;4.10;99.90;;;;;;6238636;22;20008;-86
2022/01/11 13:57:21;;;;;;;30.30;12.85;;;4.00;99.90;;;;;;6239247;22;20064;-86
2022/01/11 13:59:59;;;;;;;33.60;14.27;;;4.00;99.90;;;;;;6239806;22;20117;-86
2022/01/11 14:02:30;;;;;;;32.85;14.57;;;4.00;99.90;;;;;;6237718;22;20464;-84
2022/01/11 14:05:02;;;;;;;33.53;15.18;;;4.00;99.90;;;;;;6239664;22;20207;-84
2022/01/11 14:07:30;;;;;;;35.80;15.43;;;3.90;99.90;;;;;;6240138;22;20011;-86
2022/01/11 14:10:04;;;;;;;32.58;13.93;;;3.90;99.90;;;;;;6217282;22;20016;-85
2022/01/11 14:12:54;;;;;;;34.80;15.25;;;3.90;99.90;;;;;;6240666;22;20086;-86
2022/01/11 14:15:28;;;;;;;35.92;15.77;;;3.80;99.90;;;;;;6240039;22;20007;-86
2022/01/11 14:17:59;;;;;;;33.88;14.95;;;3.80;99.90;;;;;;6238390;22;20020;-86
2022/01/11 14:20:29;;;;;;;37.15;14.98;;;3.80;99.90;;;;;;6239687;22;20025;-87
2022/01/11 14:23:00;;;;;;;37.83;15.23;;;3.70;99.90;;;;;;6243195;22;20015;-86
2022/01/11 14:25:30;;;;;;;34.15;15.55;;;3.70;99.90;;;;;;6218272;22;20050;-85
2022/01/11 14:28:15;;;;;;;32.55;14.40;;;3.70;99.90;;;;;;6242729;22;20113;-86
2022/01/11 14:30:49;;;;;;;38.97;16.65;;;3.70;99.90;;;;;;6239079;22;20824;-86
2022/01/11 14:33:27;;;;;;;43.72;16.70;;;3.70;99.90;;;;;;6263319;22;20026;-86
2022/01/11 14:36:05;;;;;;;37.17;15.27;;;3.70;99.90;;;;;;6265043;22;20047;-85
2022/01/11 14:38:46;;;;;;;41.42;17.60;;;3.70;99.90;;;;;;6241185;22;20452;-85
2022/01/11 14:41:25;;;;;;;36.40;15.48;;;3.70;99.90;;;;;;6240081;22;20467;-86
2022/01/11 14:44:09;;;;;;;41.40;16.92;;;3.60;99.90;;;;;;6239333;22;20053;-87
2022/01/11 14:46:51;;;;;;;36.53;15.43;;;3.60;99.90;;;;;;6239093;22;20613;-87
2022/01/11 14:49:23;;;;;;;36.83;16.38;;;3.60;99.90;;;;;;6268874;22;20073;-86
2022/01/11 14:51:52;;;;;;;35.15;15.77;;;3.60;99.90;;;;;;6241738;22;20012;-86
2022/01/11 14:54:26;;;;;;;37.00;16.17;;;3.60;99.90;;;;;;6266583;22;20011;-86
2022/01/11 14:57:17;;;;;;;35.38;16.05;;;3.60;99.90;;;;;;6241937;22;20026;-86